sensor_id;sensor_type;location;lat;lon;timestamp;pressure;altitude;pressure_sealevel;temperature;humidity
10700;BME280;5401;41.986;21.452;2024-01-15T00:00:44;98129.34;;;0.25;67.99
10700;BME280;5401;41.986;21.452;2024-01-15T00:03:11;98077.97;;;-0.04;68.28
10700;BME280;5401;41.986;21.452;2024-01-15T00:05:39;98090.72;;;0.08;68.13
10700;BME280;5401;41.986;21.452;2024-01-15T00:08:08;98106.94;;;0.21;68.36
10700;BME280;5401;41.986;21.452;2024-01-15T00:10:35;98111.41;;;0.20;68.21
10700;BME280;5401;41.986;21.452;2024-01-15T00:13:03;98076.38;;;-0.23;68.39
10700;BME280;5401;41.986;21.452;2024-01-15T00:15:31;98074.78;;;-0.16;68.62
10700;BME280;5401;41.986;21.452;2024-01-15T00:17:58;98089.13;;;-0.10;68.81
10700;BME280;5401;41.986;21.452;2024-01-15T00:20:25;98096.34;;;-0.12;68.64
10700;BME280;5401;41.986;21.452;2024-01-15T00:22:53;98101.44;;;-0.11;68.95
10700;BME280;5401;41.986;21.452;2024-01-15T00:25:22;98111.06;;;-0.02;68.97
10700;BME280;5401;41.986;21.452;2024-01-15T00:27:49;98106.63;;;-0.01;69.26
10700;BME280;5401;41.986;21.452;2024-01-15T00:30:17;98119.22;;;0.12;69.18
10700;BME280;5401;41.986;21.452;2024-01-15T00:32:44;98105.50;;;0.01;69.20
10700;BME280;5401;41.986;21.452;2024-01-15T00:35:12;98103.69;;;0.01;69.42
10700;BME280;5401;41.986;21.452;2024-01-15T00:37:39;98095.50;;;0.04;69.31
10700;BME280;5401;41.986;21.452;2024-01-15T00:40:08;98090.22;;;0.04;69.30
10700;BME280;5401;41.986;21.452;2024-01-15T00:42:37;98089.03;;;-0.01;69.57
10700;BME280;5401;41.986;21.452;2024-01-15T00:45:05;98074.28;;;0.06;69.46
10700;BME280;5401;41.986;21.452;2024-01-15T00:47:33;98084.03;;;0.13;69.33
10700;BME280;5401;41.986;21.452;2024-01-15T00:50:01;98088.31;;;0.14;69.08
10700;BME280;5401;41.986;21.452;2024-01-15T00:52:29;98092.97;;;0.20;69.13
10700;BME280;5401;41.986;21.452;2024-01-15T00:54:56;98034.00;;;-0.20;69.29
10700;BME280;5401;41.986;21.452;2024-01-15T00:57:24;98099.19;;;0.19;69.17
10700;BME280;5401;41.986;21.452;2024-01-15T00:59:53;98096.22;;;0.14;69.66
10700;BME280;5401;41.986;21.452;2024-01-15T01:02:20;98094.69;;;0.12;69.30
10700;BME280;5401;41.986;21.452;2024-01-15T01:04:48;98088.41;;;0.05;69.50
10700;BME280;5401;41.986;21.452;2024-01-15T01:07:15;98073.59;;;0.04;69.50
10700;BME280;5401;41.986;21.452;2024-01-15T01:09:43;98087.22;;;-0.01;69.31
10700;BME280;5401;41.986;21.452;2024-01-15T01:12:11;98103.19;;;-0.02;69.50
10700;BME280;5401;41.986;21.452;2024-01-15T01:14:39;98100.28;;;0.09;69.44
10700;BME280;5401;41.986;21.452;2024-01-15T01:17:08;98092.41;;;0.09;70.06
10700;BME280;5401;41.986;21.452;2024-01-15T01:19:35;98075.22;;;-0.03;69.53
10700;BME280;5401;41.986;21.452;2024-01-15T01:22:03;98070.56;;;-0.09;69.99
10700;BME280;5401;41.986;21.452;2024-01-15T01:24:31;98072.66;;;-0.12;69.80
10700;BME280;5401;41.986;21.452;2024-01-15T01:26:58;98085.06;;;-0.05;69.97
10700;BME280;5401;41.986;21.452;2024-01-15T01:29:25;98084.72;;;-0.10;70.08
10700;BME280;5401;41.986;21.452;2024-01-15T01:31:53;98084.72;;;-0.10;70.11
10700;BME280;5401;41.986;21.452;2024-01-15T01:34:23;98055.66;;;-0.26;70.05
10700;BME280;5401;41.986;21.452;2024-01-15T01:36:51;98086.13;;;-0.15;70.14
10700;BME280;5401;41.986;21.452;2024-01-15T01:39:18;98080.72;;;-0.14;70.23
10700;BME280;5401;41.986;21.452;2024-01-15T01:41:47;98053.38;;;-0.21;70.14
10700;BME280;5401;41.986;21.452;2024-01-15T01:44:15;98068.19;;;-0.20;70.22
10700;BME280;5401;41.986;21.452;2024-01-15T01:46:43;98001.53;;;-0.53;70.47
10700;BME280;5401;41.986;21.452;2024-01-15T01:49:11;98030.63;;;-0.30;70.41
10700;BME280;5401;41.986;21.452;2024-01-15T01:51:40;98049.78;;;-0.20;70.38
10700;BME280;5401;41.986;21.452;2024-01-15T01:54:08;98060.31;;;-0.20;70.49
10700;BME280;5401;41.986;21.452;2024-01-15T01:56:38;98065.09;;;-0.15;70.86
10700;BME280;5401;41.986;21.452;2024-01-15T01:59:07;98042.63;;;-0.10;70.84
10700;BME280;5401;41.986;21.452;2024-01-15T02:01:35;98031.38;;;-0.20;70.35
10700;BME280;5401;41.986;21.452;2024-01-15T02:04:03;98034.72;;;-0.10;70.74
10700;BME280;5401;41.986;21.452;2024-01-15T02:06:31;97973.50;;;-0.45;70.74
10700;BME280;5401;41.986;21.452;2024-01-15T02:09:00;98047.69;;;-0.08;70.33
10700;BME280;5401;41.986;21.452;2024-01-15T02:11:28;98051.00;;;-0.06;70.91
10700;BME280;5401;41.986;21.452;2024-01-15T02:13:55;98033.59;;;-0.07;70.43
10700;BME280;5401;41.986;21.452;2024-01-15T02:16:23;98023.53;;;-0.12;70.37
10700;BME280;5401;41.986;21.452;2024-01-15T02:18:50;98002.13;;;-0.17;70.67
10700;BME280;5401;41.986;21.452;2024-01-15T02:21:17;97997.31;;;-0.21;70.46
10700;BME280;5401;41.986;21.452;2024-01-15T02:23:46;98027.81;;;-0.11;70.14
10700;BME280;5401;41.986;21.452;2024-01-15T02:26:14;98040.66;;;-0.08;70.73
10700;BME280;5401;41.986;21.452;2024-01-15T02:28:42;98020.63;;;-0.01;70.17
10700;BME280;5401;41.986;21.452;2024-01-15T02:31:10;98023.59;;;0.04;70.36
10700;BME280;5401;41.986;21.452;2024-01-15T02:33:37;98021.66;;;0.06;70.01
10700;BME280;5401;41.986;21.452;2024-01-15T02:36:05;97999.06;;;-0.04;70.28
10700;BME280;5401;41.986;21.452;2024-01-15T02:38:33;98005.88;;;0.06;70.23
10700;BME280;5401;41.986;21.452;2024-01-15T02:41:02;98005.38;;;0.02;70.09
10700;BME280;5401;41.986;21.452;2024-01-15T02:43:29;98006.19;;;0.03;70.28
10700;BME280;5401;41.986;21.452;2024-01-15T02:45:57;97987.44;;;-0.02;70.03
10700;BME280;5401;41.986;21.452;2024-01-15T02:48:24;97987.78;;;0.03;69.89
10700;BME280;5401;41.986;21.452;2024-01-15T02:50:52;97932.72;;;-0.24;70.23
10700;BME280;5401;41.986;21.452;2024-01-15T02:53:19;97993.81;;;-0.04;70.07
10700;BME280;5401;41.986;21.452;2024-01-15T02:55:47;97990.88;;;-0.01;69.98
10700;BME280;5401;41.986;21.452;2024-01-15T02:58:15;97986.59;;;-0.02;70.15
10700;BME280;5401;41.986;21.452;2024-01-15T03:00:43;97971.16;;;0.02;69.93
10700;BME280;5401;41.986;21.452;2024-01-15T03:03:10;97963.94;;;0.04;69.97
10700;BME280;5401;41.986;21.452;2024-01-15T03:05:38;97981.22;;;0.07;69.95
10700;BME280;5401;41.986;21.452;2024-01-15T03:08:05;97961.63;;;0.01;69.74
10700;BME280;5401;41.986;21.452;2024-01-15T03:10:33;97951.22;;;-0.08;69.76
10700;BME280;5401;41.986;21.452;2024-01-15T03:13:00;97902.94;;;-0.32;69.51
10700;BME280;5401;41.986;21.452;2024-01-15T03:15:29;97971.47;;;-0.01;69.83
10700;BME280;5401;41.986;21.452;2024-01-15T03:17:57;97967.69;;;0.02;69.67
10700;BME280;5401;41.986;21.452;2024-01-15T03:20:24;97955.69;;;-0.01;69.55
10700;BME280;5401;41.986;21.452;2024-01-15T03:22:51;97960.13;;;-0.01;69.56
10700;BME280;5401;41.986;21.452;2024-01-15T03:25:19;97945.63;;;-0.05;69.51
10700;BME280;5401;41.986;21.452;2024-01-15T03:27:46;97874.94;;;-0.41;69.56
10700;BME280;5401;41.986;21.452;2024-01-15T03:30:14;97925.59;;;-0.06;69.72
10700;BME280;5401;41.986;21.452;2024-01-15T03:32:43;97908.84;;;0.03;69.62
10700;BME280;5401;41.986;21.452;2024-01-15T03:35:10;97897.63;;;-0.07;69.71
10700;BME280;5401;41.986;21.452;2024-01-15T03:37:38;97902.81;;;-0.23;69.38
10700;BME280;5401;41.986;21.452;2024-01-15T03:40:07;97905.72;;;-0.34;70.01
10700;BME280;5401;41.986;21.452;2024-01-15T03:42:34;97912.47;;;-0.31;69.98
10700;BME280;5401;41.986;21.452;2024-01-15T03:45:02;97895.81;;;-0.39;70.11
10700;BME280;5401;41.986;21.452;2024-01-15T03:47:30;97900.66;;;-0.27;70.33
10700;BME280;5401;41.986;21.452;2024-01-15T03:49:58;97911.44;;;-0.05;70.32
10700;BME280;5401;41.986;21.452;2024-01-15T03:52:26;97893.84;;;-0.04;70.17
10700;BME280;5401;41.986;21.452;2024-01-15T03:54:53;97907.03;;;0.03;70.18
10700;BME280;5401;41.986;21.452;2024-01-15T03:57:21;97905.25;;;0.12;70.20
10700;BME280;5401;41.986;21.452;2024-01-15T03:59:48;97903.47;;;0.12;70.17
10700;BME280;5401;41.986;21.452;2024-01-15T04:02:16;97897.38;;;0.20;70.22
10700;BME280;5401;41.986;21.452;2024-01-15T04:04:43;97905.63;;;0.25;69.77
10700;BME280;5401;41.986;21.452;2024-01-15T04:07:12;97904.50;;;0.27;70.07
10700;BME280;5401;41.986;21.452;2024-01-15T04:09:40;97904.78;;;0.16;69.37
10700;BME280;5401;41.986;21.452;2024-01-15T04:12:08;97909.19;;;0.08;69.69
10700;BME280;5401;41.986;21.452;2024-01-15T04:14:35;97906.88;;;0.05;69.82
10700;BME280;5401;41.986;21.452;2024-01-15T04:17:03;97898.81;;;-0.01;69.78
10700;BME280;5401;41.986;21.452;2024-01-15T04:19:30;97882.16;;;-0.10;70.12
10700;BME280;5401;41.986;21.452;2024-01-15T04:21:58;97861.41;;;-0.21;70.11
10700;BME280;5401;41.986;21.452;2024-01-15T04:24:26;97892.56;;;0.07;70.23
10700;BME280;5401;41.986;21.452;2024-01-15T04:26:54;97894.41;;;0.15;69.93
10700;BME280;5401;41.986;21.452;2024-01-15T04:29:21;97891.16;;;0.21;70.43
10700;BME280;5401;41.986;21.452;2024-01-15T04:31:49;97902.69;;;0.28;69.79
10700;BME280;5401;41.986;21.452;2024-01-15T04:34:16;97885.25;;;0.27;69.93
10700;BME280;5401;41.986;21.452;2024-01-15T04:36:44;97878.16;;;0.27;69.82
10700;BME280;5401;41.986;21.452;2024-01-15T04:39:11;97878.16;;;0.27;69.46
10700;BME280;5401;41.986;21.452;2024-01-15T04:41:40;97872.38;;;0.16;69.72
10700;BME280;5401;41.986;21.452;2024-01-15T04:44:08;97896.91;;;0.32;69.62
10700;BME280;5401;41.986;21.452;2024-01-15T04:46:35;97888.69;;;0.27;70.04
10700;BME280;5401;41.986;21.452;2024-01-15T04:49:02;97881.09;;;0.24;69.75
10700;BME280;5401;41.986;21.452;2024-01-15T04:51:30;97892.66;;;0.31;69.69
10700;BME280;5401;41.986;21.452;2024-01-15T04:53:57;97894.00;;;0.35;69.67
10700;BME280;5401;41.986;21.452;2024-01-15T04:56:25;97900.41;;;0.33;69.46
10700;BME280;5401;41.986;21.452;2024-01-15T04:58:54;97895.47;;;0.37;69.93
10700;BME280;5401;41.986;21.452;2024-01-15T05:01:21;97894.00;;;0.35;69.40
10700;BME280;5401;41.986;21.452;2024-01-15T05:03:49;97890.69;;;0.33;69.75
10700;BME280;5401;41.986;21.452;2024-01-15T05:06:16;97884.94;;;0.37;69.96
10700;BME280;5401;41.986;21.452;2024-01-15T05:08:44;97888.56;;;0.36;69.43
10700;BME280;5401;41.986;21.452;2024-01-15T05:11:11;97878.34;;;0.34;69.48
10700;BME280;5401;41.986;21.452;2024-01-15T05:13:39;97881.13;;;0.32;69.74
10700;BME280;5401;41.986;21.452;2024-01-15T05:16:08;97873.53;;;0.21;69.68
10700;BME280;5401;41.986;21.452;2024-01-15T05:18:35;97881.44;;;0.21;69.76
10700;BME280;5401;41.986;21.452;2024-01-15T05:21:04;97880.25;;;0.16;69.66
10700;BME280;5401;41.986;21.452;2024-01-15T05:23:32;97885.22;;;0.19;69.80
10700;BME280;5401;41.986;21.452;2024-01-15T05:25:59;97863.03;;;0.21;69.67
10700;BME280;5401;41.986;21.452;2024-01-15T05:28:27;97870.44;;;0.26;69.54
10700;BME280;5401;41.986;21.452;2024-01-15T05:30:54;97876.34;;;0.28;69.54
10700;BME280;5401;41.986;21.452;2024-01-15T05:33:23;97879.66;;;0.30;69.78
10700;BME280;5401;41.986;21.452;2024-01-15T05:35:50;97867.31;;;0.30;69.54
10700;BME280;5401;41.986;21.452;2024-01-15T05:38:18;97867.31;;;0.38;69.59
10700;BME280;5401;41.986;21.452;2024-01-15T05:40:45;97856.66;;;0.47;69.60
10700;BME280;5401;41.986;21.452;2024-01-15T05:43:12;97856.00;;;0.53;69.94
10700;BME280;5401;41.986;21.452;2024-01-15T05:45:42;97833.28;;;0.36;69.66
10700;BME280;5401;41.986;21.452;2024-01-15T05:48:10;97838.41;;;0.54;69.44
10700;BME280;5401;41.986;21.452;2024-01-15T05:50:39;97851.72;;;0.60;69.71
10700;BME280;5401;41.986;21.452;2024-01-15T05:53:06;97858.81;;;0.60;69.35
10700;BME280;5401;41.986;21.452;2024-01-15T05:55:35;97844.34;;;0.64;69.46
10700;BME280;5401;41.986;21.452;2024-01-15T05:58:03;97855.03;;;0.70;69.56
10700;BME280;5401;41.986;21.452;2024-01-15T06:00:31;97852.25;;;0.71;69.18
10700;BME280;5401;41.986;21.452;2024-01-15T06:03:00;97843.34;;;0.72;69.18
10700;BME280;5401;41.986;21.452;2024-01-15T06:05:27;97824.25;;;0.70;69.17
10700;BME280;5401;41.986;21.452;2024-01-15T06:07:56;97824.56;;;0.60;69.43
10700;BME280;5401;41.986;21.452;2024-01-15T06:10:24;97834.28;;;0.51;69.22
10700;BME280;5401;41.986;21.452;2024-01-15T06:12:51;97835.59;;;0.55;69.34
10700;BME280;5401;41.986;21.452;2024-01-15T06:15:19;97835.09;;;0.60;69.44
10700;BME280;5401;41.986;21.452;2024-01-15T06:17:46;97840.69;;;0.65;69.80
10700;BME280;5401;41.986;21.452;2024-01-15T06:20:14;97831.97;;;0.56;69.63
10700;BME280;5401;41.986;21.452;2024-01-15T06:22:41;97828.69;;;0.54;69.45
10700;BME280;5401;41.986;21.452;2024-01-15T06:25:10;97833.94;;;0.62;69.45
10700;BME280;5401;41.986;21.452;2024-01-15T06:27:38;97828.03;;;0.68;69.39
10700;BME280;5401;41.986;21.452;2024-01-15T06:30:15;97810.91;;;0.72;69.48
10700;BME280;5401;41.986;21.452;2024-01-15T06:32:42;97811.72;;;0.65;69.59
10700;BME280;5401;41.986;21.452;2024-01-15T06:35:10;97815.03;;;0.67;69.08
10700;BME280;5401;41.986;21.452;2024-01-15T06:37:39;97825.56;;;0.67;69.04
10700;BME280;5401;41.986;21.452;2024-01-15T06:40:07;97826.88;;;0.70;69.04
10700;BME280;5401;41.986;21.452;2024-01-15T06:42:37;97822.09;;;0.74;69.45
10700;BME280;5401;41.986;21.452;2024-01-15T06:45:05;97814.38;;;0.72;69.38
10700;BME280;5401;41.986;21.452;2024-01-15T06:47:33;97813.38;;;0.81;69.26
10700;BME280;5401;41.986;21.452;2024-01-15T06:50:00;97812.56;;;0.81;69.10
10700;BME280;5401;41.986;21.452;2024-01-15T06:52:28;97830.81;;;0.82;69.16
10700;BME280;5401;41.986;21.452;2024-01-15T06:54:55;97830.50;;;0.85;68.75
10700;BME280;5401;41.986;21.452;2024-01-15T06:57:22;97821.94;;;0.91;68.95
10700;BME280;5401;41.986;21.452;2024-01-15T06:59:51;97822.09;;;0.98;68.77
10700;BME280;5401;41.986;21.452;2024-01-15T07:02:19;97825.69;;;1.05;69.13
10700;BME280;5401;41.986;21.452;2024-01-15T07:04:47;97829.16;;;1.13;68.88
10700;BME280;5401;41.986;21.452;2024-01-15T07:07:15;97836.06;;;1.22;69.10
10700;BME280;5401;41.986;21.452;2024-01-15T07:09:43;97828.97;;;1.30;69.14
10700;BME280;5401;41.986;21.452;2024-01-15T07:12:10;97835.88;;;1.31;68.82
10700;BME280;5401;41.986;21.452;2024-01-15T07:14:37;97835.03;;;1.39;68.38
10700;BME280;5401;41.986;21.452;2024-01-15T07:17:06;97848.56;;;1.36;68.72
10700;BME280;5401;41.986;21.452;2024-01-15T07:19:34;97835.53;;;1.42;69.05
10700;BME280;5401;41.986;21.452;2024-01-15T07:22:01;97854.94;;;1.49;68.28
10700;BME280;5401;41.986;21.452;2024-01-15T07:24:28;97837.94;;;1.59;69.00
10700;BME280;5401;41.986;21.452;2024-01-15T07:26:56;97850.94;;;1.69;68.22
10700;BME280;5401;41.986;21.452;2024-01-15T07:29:23;97840.00;;;1.79;68.32
10700;BME280;5401;41.986;21.452;2024-01-15T07:31:51;97840.69;;;1.74;68.16
10700;BME280;5401;41.986;21.452;2024-01-15T07:34:20;97846.78;;;1.82;68.50
10700;BME280;5401;41.986;21.452;2024-01-15T07:36:48;97823.69;;;1.84;67.59
10700;BME280;5401;41.986;21.452;2024-01-15T07:39:15;97839.25;;;2.01;67.47
10700;BME280;5401;41.986;21.452;2024-01-15T07:41:43;97792.22;;;1.75;67.34
10700;BME280;5401;41.986;21.452;2024-01-15T07:44:11;97831.66;;;2.06;67.35
10700;BME280;5401;41.986;21.452;2024-01-15T07:46:39;97841.84;;;2.09;67.87
10700;BME280;5401;41.986;21.452;2024-01-15T07:49:07;97806.13;;;1.99;67.43
10700;BME280;5401;41.986;21.452;2024-01-15T07:51:36;97834.09;;;2.38;67.70
10700;BME280;5401;41.986;21.452;2024-01-15T07:54:03;97832.53;;;2.51;67.55
10700;BME280;5401;41.986;21.452;2024-01-15T07:56:31;97835.13;;;2.59;67.35
10700;BME280;5401;41.986;21.452;2024-01-15T07:58:59;97848.28;;;2.67;67.11
10700;BME280;5401;41.986;21.452;2024-01-15T08:01:26;97842.78;;;2.68;66.85
10700;BME280;5401;41.986;21.452;2024-01-15T08:03:53;97832.94;;;2.62;66.27
10700;BME280;5401;41.986;21.452;2024-01-15T08:06:21;97794.47;;;2.38;66.17
10700;BME280;5401;41.986;21.452;2024-01-15T08:08:52;97842.16;;;2.66;66.16
10700;BME280;5401;41.986;21.452;2024-01-15T08:11:19;97850.56;;;2.70;66.23
10700;BME280;5401;41.986;21.452;2024-01-15T08:13:47;97827.16;;;2.67;65.97
10700;BME280;5401;41.986;21.452;2024-01-15T08:16:14;97845.63;;;2.89;66.27
10700;BME280;5401;41.986;21.452;2024-01-15T08:18:42;97826.94;;;2.90;66.38
10700;BME280;5401;41.986;21.452;2024-01-15T08:21:10;97807.84;;;2.81;65.98
10700;BME280;5401;41.986;21.452;2024-01-15T08:23:37;97832.78;;;3.00;65.64
10700;BME280;5401;41.986;21.452;2024-01-15T08:26:06;97838.09;;;3.00;65.13
10700;BME280;5401;41.986;21.452;2024-01-15T08:28:34;97828.69;;;2.98;65.12
10700;BME280;5401;41.986;21.452;2024-01-15T08:31:01;97826.97;;;3.05;65.39
10700;BME280;5401;41.986;21.452;2024-01-15T08:33:29;97831.81;;;3.01;66.08
10700;BME280;5401;41.986;21.452;2024-01-15T08:35:56;97834.00;;;3.12;65.15
10700;BME280;5401;41.986;21.452;2024-01-15T08:38:24;97833.88;;;3.42;65.46
10700;BME280;5401;41.986;21.452;2024-01-15T08:40:52;97831.81;;;3.66;65.82
10700;BME280;5401;41.986;21.452;2024-01-15T08:43:24;97820.75;;;3.63;65.62
10700;BME280;5401;41.986;21.452;2024-01-15T08:45:51;97812.81;;;3.63;64.84
10700;BME280;5401;41.986;21.452;2024-01-15T08:48:19;97825.94;;;3.71;65.02
10700;BME280;5401;41.986;21.452;2024-01-15T08:50:46;97833.16;;;3.77;65.16
10700;BME280;5401;41.986;21.452;2024-01-15T08:53:14;97834.91;;;3.84;65.03
10700;BME280;5401;41.986;21.452;2024-01-15T08:55:41;97833.88;;;3.85;64.15
10700;BME280;5401;41.986;21.452;2024-01-15T08:58:10;97817.47;;;3.75;64.50
10700;BME280;5401;41.986;21.452;2024-01-15T09:00:39;97807.06;;;3.74;65.00
10700;BME280;5401;41.986;21.452;2024-01-15T09:03:07;97827.78;;;3.85;64.16
10700;BME280;5401;41.986;21.452;2024-01-15T09:05:35;97829.63;;;3.84;64.57
10700;BME280;5401;41.986;21.452;2024-01-15T09:08:03;97821.13;;;3.89;64.82
10700;BME280;5401;41.986;21.452;2024-01-15T09:10:30;97786.06;;;3.72;63.99
10700;BME280;5401;41.986;21.452;2024-01-15T09:12:57;97767.34;;;3.59;64.42
10700;BME280;5401;41.986;21.452;2024-01-15T09:15:26;97823.66;;;3.96;63.83
10700;BME280;5401;41.986;21.452;2024-01-15T09:17:55;97798.66;;;3.85;63.59
10700;BME280;5401;41.986;21.452;2024-01-15T09:20:23;97751.94;;;3.63;64.16
10700;BME280;5401;41.986;21.452;2024-01-15T09:22:51;97793.44;;;3.91;64.01
10700;BME280;5401;41.986;21.452;2024-01-15T09:25:19;97759.31;;;3.67;63.96
10700;BME280;5401;41.986;21.452;2024-01-15T09:27:47;97789.56;;;4.08;63.52
10700;BME280;5401;41.986;21.452;2024-01-15T09:30:14;97794.47;;;4.25;63.23
10700;BME280;5401;41.986;21.452;2024-01-15T09:32:42;97771.16;;;4.35;63.01
10700;BME280;5401;41.986;21.452;2024-01-15T09:35:11;97762.00;;;4.37;63.67
10700;BME280;5401;41.986;21.452;2024-01-15T09:37:39;97763.38;;;4.33;62.91
10700;BME280;5401;41.986;21.452;2024-01-15T09:40:08;97762.84;;;4.24;62.67
10700;BME280;5401;41.986;21.452;2024-01-15T09:42:39;97743.44;;;4.17;63.43
10700;BME280;5401;41.986;21.452;2024-01-15T09:45:08;97760.22;;;4.44;63.26
10700;BME280;5401;41.986;21.452;2024-01-15T09:47:36;97749.13;;;4.55;63.54
10700;BME280;5401;41.986;21.452;2024-01-15T09:50:05;97744.34;;;4.65;63.50
10700;BME280;5401;41.986;21.452;2024-01-15T09:52:34;97753.47;;;4.83;63.25
10700;BME280;5401;41.986;21.452;2024-01-15T09:55:03;97749.69;;;4.98;62.80
10700;BME280;5401;41.986;21.452;2024-01-15T09:57:31;97739.63;;;5.15;63.00
10700;BME280;5401;41.986;21.452;2024-01-15T10:00:01;97732.44;;;5.09;62.53
10700;BME280;5401;41.986;21.452;2024-01-15T10:02:31;97735.97;;;5.16;62.24
10700;BME280;5401;41.986;21.452;2024-01-15T10:04:58;97708.63;;;5.15;62.26
10700;BME280;5401;41.986;21.452;2024-01-15T10:07:26;97707.22;;;5.19;62.40
10700;BME280;5401;41.986;21.452;2024-01-15T10:09:57;97717.63;;;5.21;62.01
10700;BME280;5401;41.986;21.452;2024-01-15T10:12:25;97712.75;;;5.24;62.03
10700;BME280;5401;41.986;21.452;2024-01-15T10:14:53;97645.09;;;5.01;62.00
10700;BME280;5401;41.986;21.452;2024-01-15T10:17:21;97687.50;;;5.34;62.20
10700;BME280;5401;41.986;21.452;2024-01-15T10:19:48;97682.19;;;5.34;61.94
10700;BME280;5401;41.986;21.452;2024-01-15T10:22:17;97687.06;;;5.31;62.57
10700;BME280;5401;41.986;21.452;2024-01-15T10:24:45;97684.78;;;5.22;61.89
10700;BME280;5401;41.986;21.452;2024-01-15T10:27:16;97680.50;;;5.27;62.00
10700;BME280;5401;41.986;21.452;2024-01-15T10:29:43;97663.59;;;5.28;62.16
10700;BME280;5401;41.986;21.452;2024-01-15T10:32:13;97674.41;;;5.27;62.14
10700;BME280;5401;41.986;21.452;2024-01-15T10:34:40;97660.53;;;5.31;62.09
10700;BME280;5401;41.986;21.452;2024-01-15T10:37:09;97629.25;;;5.20;61.89
10700;BME280;5401;41.986;21.452;2024-01-15T10:39:37;97655.53;;;5.49;62.08
10700;BME280;5401;41.986;21.452;2024-01-15T10:42:05;97645.34;;;5.52;61.25
10700;BME280;5401;41.986;21.452;2024-01-15T10:44:35;97643.13;;;5.62;61.65
10700;BME280;5401;41.986;21.452;2024-01-15T10:47:03;97631.75;;;5.74;61.87
10700;BME280;5401;41.986;21.452;2024-01-15T10:49:30;97598.28;;;5.80;61.44
10700;BME280;5401;41.986;21.452;2024-01-15T10:51:58;97618.94;;;5.91;61.39
10700;BME280;5401;41.986;21.452;2024-01-15T10:54:26;97590.31;;;5.86;60.84
10700;BME280;5401;41.986;21.452;2024-01-15T10:56:55;97610.78;;;5.99;61.05
10700;BME280;5401;41.986;21.452;2024-01-15T10:59:23;97558.03;;;5.76;60.86
10700;BME280;5401;41.986;21.452;2024-01-15T11:01:53;97558.19;;;5.62;60.86
10700;BME280;5401;41.986;21.452;2024-01-15T11:04:21;97595.84;;;5.98;60.96
10700;BME280;5401;41.986;21.452;2024-01-15T11:06:51;97584.41;;;6.03;60.89
10700;BME280;5401;41.986;21.452;2024-01-15T11:09:19;97576.25;;;6.05;60.64
10700;BME280;5401;41.986;21.452;2024-01-15T11:11:47;97568.47;;;6.03;60.62
10700;BME280;5401;41.986;21.452;2024-01-15T11:14:34;97581.16;;;6.08;60.67
10700;BME280;5401;41.986;21.452;2024-01-15T11:17:04;97575.84;;;6.21;60.78
10700;BME280;5401;41.986;21.452;2024-01-15T11:19:38;97551.72;;;6.29;60.58
10700;BME280;5401;41.986;21.452;2024-01-15T11:22:08;97508.59;;;5.95;60.46
10700;BME280;5401;41.986;21.452;2024-01-15T11:24:36;97567.66;;;6.35;60.29
10700;BME280;5401;41.986;21.452;2024-01-15T11:27:05;97556.00;;;6.36;60.19
10700;BME280;5401;41.986;21.452;2024-01-15T11:29:34;97562.16;;;6.30;60.03
10700;BME280;5401;41.986;21.452;2024-01-15T11:32:04;97540.09;;;6.17;60.00
10700;BME280;5401;41.986;21.452;2024-01-15T11:34:58;97552.34;;;6.31;60.19
10700;BME280;5401;41.986;21.452;2024-01-15T11:37:28;97532.31;;;6.35;59.90
10700;BME280;5401;41.986;21.452;2024-01-15T11:40:00;97527.78;;;6.41;59.81
10700;BME280;5401;41.986;21.452;2024-01-15T11:42:29;97399.31;;;5.66;59.76
10700;BME280;5401;41.986;21.452;2024-01-15T11:44:57;97513.69;;;6.41;59.79
10700;BME280;5401;41.986;21.452;2024-01-15T11:48:06;97504.91;;;6.40;59.40
10700;BME280;5401;41.986;21.452;2024-01-15T11:50:39;97527.13;;;6.65;59.58
10700;BME280;5401;41.986;21.452;2024-01-15T11:53:16;97525.50;;;6.71;59.35
10700;BME280;5401;41.986;21.452;2024-01-15T11:55:45;97512.19;;;6.71;59.21
10700;BME280;5401;41.986;21.452;2024-01-15T11:58:14;97503.22;;;6.59;59.69
10700;BME280;5401;41.986;21.452;2024-01-15T12:00:44;97499.91;;;6.70;59.39
10700;BME280;5401;41.986;21.452;2024-01-15T12:03:14;97483.19;;;6.50;59.53
10700;BME280;5401;41.986;21.452;2024-01-15T12:05:42;97496.84;;;6.66;59.23
10700;BME280;5401;41.986;21.452;2024-01-15T12:08:10;97447.22;;;6.41;59.12
10700;BME280;5401;41.986;21.452;2024-01-15T12:10:38;97489.06;;;6.71;59.24
10700;BME280;5401;41.986;21.452;2024-01-15T12:13:10;97474.38;;;6.69;59.07
10700;BME280;5401;41.986;21.452;2024-01-15T12:15:38;97482.53;;;6.74;58.95
10700;BME280;5401;41.986;21.452;2024-01-15T12:18:08;97429.81;;;6.51;58.94
10700;BME280;5401;41.986;21.452;2024-01-15T12:20:37;97470.22;;;6.79;59.38
10700;BME280;5401;41.986;21.452;2024-01-15T12:23:05;97465.13;;;6.77;59.26
10700;BME280;5401;41.986;21.452;2024-01-15T12:25:34;97462.44;;;6.77;59.20
10700;BME280;5401;41.986;21.452;2024-01-15T12:28:02;97455.94;;;6.74;59.03
10700;BME280;5401;41.986;21.452;2024-01-15T12:30:30;97420.22;;;6.50;59.00
10700;BME280;5401;41.986;21.452;2024-01-15T12:33:02;97453.69;;;6.64;58.74
10700;BME280;5401;41.986;21.452;2024-01-15T12:35:31;97440.03;;;6.48;59.08
10700;BME280;5401;41.986;21.452;2024-01-15T12:38:01;97450.91;;;6.46;58.89
10700;BME280;5401;41.986;21.452;2024-01-15T12:40:30;97447.84;;;6.43;59.03
10700;BME280;5401;41.986;21.452;2024-01-15T12:42:59;97410.28;;;6.20;59.06
10700;BME280;5401;41.986;21.452;2024-01-15T12:45:26;97433.13;;;6.40;58.88
10700;BME280;5401;41.986;21.452;2024-01-15T12:47:54;97433.34;;;6.33;58.70
10700;BME280;5401;41.986;21.452;2024-01-15T12:50:24;97437.78;;;6.51;58.89
10700;BME280;5401;41.986;21.452;2024-01-15T12:52:52;97443.72;;;6.53;58.63
10700;BME280;5401;41.986;21.452;2024-01-15T12:55:20;97444.53;;;6.54;58.54
10700;BME280;5401;41.986;21.452;2024-01-15T12:57:48;97444.53;;;6.54;58.14
10700;BME280;5401;41.986;21.452;2024-01-15T13:00:18;97441.25;;;6.52;58.56
10700;BME280;5401;41.986;21.452;2024-01-15T13:02:45;97426.38;;;6.44;58.56
10700;BME280;5401;41.986;21.452;2024-01-15T13:05:13;97431.22;;;6.54;58.20
10700;BME280;5401;41.986;21.452;2024-01-15T13:07:40;97437.38;;;6.61;58.45
10700;BME280;5401;41.986;21.452;2024-01-15T13:10:08;97425.91;;;6.67;58.54
10700;BME280;5401;41.986;21.452;2024-01-15T13:12:37;97422.59;;;6.71;58.02
10700;BME280;5401;41.986;21.452;2024-01-15T13:15:05;97411.97;;;6.71;58.15